createdAt,value
2022-08-04T00:00:45.427Z,2.83
2022-08-04T00:03:20.780Z,2.95
2022-08-04T00:06:00.758Z,3.00
2022-08-04T00:08:40.649Z,2.83
2022-08-04T00:11:15.368Z,3.20
2022-08-04T00:13:58.034Z,2.80
2022-08-04T00:16:37.800Z,3.58
2022-08-04T00:19:11.505Z,3.22
2022-08-04T00:21:47.730Z,2.90
2022-08-04T00:24:17.398Z,3.20
2022-08-04T00:26:45.990Z,3.15
2022-08-04T00:29:14.113Z,3.20
2022-08-04T00:31:57.201Z,3.30
2022-08-04T00:34:27.903Z,3.40
2022-08-04T00:36:58.384Z,3.33
2022-08-04T00:39:27.560Z,3.60
2022-08-04T00:42:24.337Z,2.97
2022-08-04T00:45:08.745Z,3.17
2022-08-04T00:47:49.102Z,2.90
2022-08-04T00:50:26.038Z,3.47
2022-08-04T00:53:07.814Z,3.30
2022-08-04T00:55:58.903Z,3.38
2022-08-04T00:58:40.799Z,3.30
2022-08-04T01:01:17.874Z,3.20
2022-08-04T01:04:04.121Z,3.30
2022-08-04T01:06:56.511Z,3.47
2022-08-04T01:09:45.514Z,2.75
2022-08-04T01:12:37.953Z,3.75
2022-08-04T01:15:08.149Z,3.40
2022-08-04T01:17:48.597Z,3.00
2022-08-04T01:20:22.486Z,3.38
2022-08-04T01:23:46.840Z,3.05
2022-08-04T01:26:57.601Z,3.20
2022-08-04T01:29:38.247Z,3.17
2022-08-04T01:32:26.096Z,3.13
2022-08-04T01:35:01.949Z,3.30
2022-08-04T01:37:43.585Z,3.28
2022-08-04T01:40:15.459Z,3.13
2022-08-04T01:42:46.170Z,3.20
2022-08-04T01:45:15.928Z,3.00
2022-08-04T01:47:50.849Z,3.30
2022-08-04T01:50:19.070Z,2.83
2022-08-04T01:52:50.979Z,3.17
2022-08-04T01:55:19.906Z,2.90
2022-08-04T01:57:50.907Z,3.72
2022-08-04T02:00:22.726Z,3.22
2022-08-04T02:02:52.053Z,3.28
2022-08-04T02:05:22.044Z,3.25
2022-08-04T02:08:06.373Z,3.70
2022-08-04T02:10:50.130Z,3.75
2022-08-04T02:13:24.818Z,3.40
2022-08-04T02:16:02.767Z,3.20
2022-08-04T02:18:33.575Z,3.15
2022-08-04T02:21:02.911Z,3.35
2022-08-04T02:23:36.188Z,3.17
2022-08-04T02:26:06.557Z,3.60
2022-08-04T02:28:44.562Z,2.72
2022-08-04T02:31:28.824Z,3.40
2022-08-04T02:34:07.433Z,3.78
2022-08-04T02:36:38.274Z,3.00
2022-08-04T02:39:07.816Z,3.00
2022-08-04T02:41:37.187Z,3.40
2022-08-04T02:44:07.516Z,3.53
2022-08-04T02:46:39.402Z,3.28
2022-08-04T02:49:09.394Z,3.20
2022-08-04T02:51:39.223Z,2.88
2022-08-04T02:54:08.533Z,3.08
2022-08-04T02:56:38.921Z,3.53
2022-08-04T02:59:10.502Z,2.95
2022-08-04T03:01:58.062Z,3.40
2022-08-04T03:04:52.152Z,2.90
2022-08-04T03:07:57.327Z,3.17
2022-08-04T03:11:18.000Z,2.75
2022-08-04T03:14:22.389Z,3.30
2022-08-04T03:17:17.796Z,2.95
2022-08-04T03:20:09.977Z,2.88
2022-08-04T03:23:13.417Z,2.67
2022-08-04T03:26:13.497Z,2.33
2022-08-04T03:29:12.229Z,2.80
2022-08-04T03:32:13.861Z,2.63
2022-08-04T03:34:59.377Z,2.80
2022-08-04T03:37:48.058Z,2.50
2022-08-04T03:40:35.728Z,3.15
2022-08-04T03:43:58.366Z,2.20
2022-08-04T03:47:13.341Z,2.80
2022-08-04T03:50:10.971Z,2.75
2022-08-04T03:53:10.537Z,2.50
2022-08-04T03:55:49.963Z,2.70
2022-08-04T03:58:41.005Z,2.80
2022-08-04T04:01:22.310Z,2.50
2022-08-04T04:04:16.063Z,2.42
2022-08-04T04:07:06.782Z,2.45
2022-08-04T04:10:06.377Z,2.67
2022-08-04T04:13:11.061Z,2.42
2022-08-04T04:16:00.400Z,2.58
2022-08-04T04:18:59.983Z,3.40
2022-08-04T04:21:50.463Z,2.60
2022-08-04T04:24:34.569Z,2.50
2022-08-04T04:27:16.900Z,2.53
2022-08-04T04:30:04.184Z,2.65
2022-08-04T04:32:45.482Z,2.53
2022-08-04T04:35:24.150Z,2.40
2022-08-04T04:38:14.553Z,2.22
2022-08-04T04:40:57.089Z,2.70
2022-08-04T04:43:52.034Z,2.58
2022-08-04T04:46:33.750Z,2.60
2022-08-04T04:49:12.689Z,2.67
2022-08-04T04:51:49.548Z,2.60
2022-08-04T04:54:27.432Z,2.40
2022-08-04T04:57:04.545Z,2.78
2022-08-04T04:59:35.902Z,2.38
2022-08-04T05:02:29.217Z,2.35
2022-08-04T05:05:24.222Z,2.40
2022-08-04T05:08:45.467Z,2.47
2022-08-04T05:11:35.169Z,1.88
2022-08-04T05:14:39.070Z,2.17
2022-08-04T05:17:03.060Z,2.30
2022-08-04T05:19:44.235Z,2.42
2022-08-04T05:22:23.563Z,2.80
2022-08-04T05:25:01.731Z,2.22
2022-08-04T05:27:40.033Z,2.45
2022-08-04T05:30:09.997Z,2.10
2022-08-04T05:32:46.993Z,2.28
2022-08-04T05:35:37.318Z,2.17
2022-08-04T05:38:15.655Z,2.33
2022-08-04T05:40:45.655Z,2.55
2022-08-04T05:43:16.092Z,2.60
2022-08-04T05:45:48.374Z,2.85
2022-08-04T05:48:17.726Z,3.13
2022-08-04T05:50:47.426Z,3.10
2022-08-04T05:53:19.148Z,2.55
2022-08-04T05:55:59.578Z,2.67
2022-08-04T05:58:30.610Z,2.47
2022-08-04T06:01:00.785Z,2.40
2022-08-04T06:03:30.917Z,2.45
2022-08-04T06:06:00.003Z,2.47
2022-08-04T06:08:30.728Z,2.35
2022-08-04T06:11:03.468Z,2.80
2022-08-04T06:13:48.574Z,2.63
2022-08-04T06:16:29.666Z,2.30
2022-08-04T06:20:03.493Z,2.50
2022-08-04T06:21:51.870Z,2.42
2022-08-04T06:24:26.050Z,2.38
2022-08-04T06:26:55.122Z,2.20
2022-08-04T06:29:28.409Z,2.15
2022-08-04T06:32:29.912Z,2.40
2022-08-04T06:34:53.359Z,2.30
2022-08-04T06:37:41.000Z,2.22
2022-08-04T06:40:29.538Z,2.13
2022-08-04T06:42:59.900Z,2.03
2022-08-04T06:45:28.454Z,1.70
2022-08-04T06:47:58.156Z,1.75
2022-08-04T06:51:24.503Z,1.63
2022-08-04T06:53:15.320Z,1.85
2022-08-04T06:55:47.683Z,1.85
2022-08-04T06:58:17.527Z,1.85
2022-08-04T07:00:48.197Z,2.05
2022-08-04T07:03:19.367Z,1.88
2022-08-04T07:05:48.630Z,1.75
2022-08-04T07:08:17.035Z,1.60
2022-08-04T07:10:47.047Z,1.90
2022-08-04T07:13:16.889Z,1.80
2022-08-04T07:15:46.636Z,1.40
2022-08-04T07:18:14.916Z,1.30
2022-08-04T07:20:44.518Z,1.50
2022-08-04T07:23:17.460Z,1.40
2022-08-04T07:25:59.911Z,1.65
2022-08-04T07:28:40.957Z,1.35
2022-08-04T07:31:31.902Z,1.33
2022-08-04T07:34:21.334Z,1.40
2022-08-04T07:36:53.266Z,1.30
2022-08-04T07:39:28.516Z,1.40
2022-08-04T07:42:01.492Z,1.25
2022-08-04T07:44:31.208Z,1.30
2022-08-04T07:47:00.121Z,1.30
2022-08-04T07:49:55.964Z,1.60
2022-08-04T07:52:17.706Z,1.55
2022-08-04T07:54:46.369Z,1.40
2022-08-04T07:57:20.974Z,1.48
2022-08-04T08:00:08.804Z,1.45
2022-08-04T08:02:38.870Z,1.10
2022-08-04T08:05:09.021Z,1.30
2022-08-04T08:07:37.176Z,1.10
2022-08-04T08:10:19.930Z,1.17
2022-08-04T08:12:52.140Z,1.30
2022-08-04T08:15:21.716Z,1.33
2022-08-04T08:17:59.164Z,1.52
2022-08-04T08:20:30.733Z,1.40
2022-08-04T08:22:59.187Z,1.33
2022-08-04T08:25:27.283Z,1.45
2022-08-04T08:27:56.945Z,1.77
2022-08-04T08:30:31.857Z,1.25
2022-08-04T08:33:03.779Z,1.58
2022-08-04T08:35:54.127Z,1.38
2022-08-04T08:38:39.980Z,1.70
2022-08-04T08:41:34.926Z,1.63
2022-08-04T08:44:51.407Z,1.38
2022-08-04T08:48:06.291Z,1.90
2022-08-04T08:50:45.426Z,1.70
2022-08-04T08:53:29.019Z,1.77
2022-08-04T08:56:15.128Z,1.65
2022-08-04T08:59:00.781Z,1.65
2022-08-04T09:01:54.272Z,1.33
2022-08-04T09:04:57.126Z,1.65
2022-08-04T09:07:51.548Z,1.60
2022-08-04T09:10:27.154Z,1.67
2022-08-04T09:13:03.708Z,1.33
2022-08-04T09:15:37.457Z,1.48
2022-08-04T09:18:14.775Z,1.60
2022-08-04T09:20:49.909Z,1.33
2022-08-04T09:23:25.351Z,1.52
2022-08-04T09:26:07.449Z,1.40
2022-08-04T09:28:54.631Z,1.10
2022-08-04T09:31:51.700Z,1.48
2022-08-04T09:34:27.969Z,1.58
2022-08-04T09:37:06.017Z,1.33
2022-08-04T09:39:41.402Z,1.60
2022-08-04T09:42:26.176Z,1.40
2022-08-04T09:45:06.166Z,1.38
2022-08-04T09:47:48.766Z,1.35
2022-08-04T09:50:31.171Z,1.65
2022-08-04T09:53:14.488Z,1.40
2022-08-04T09:55:56.355Z,1.30
2022-08-04T09:58:40.209Z,1.45
2022-08-04T10:01:11.440Z,1.55
2022-08-04T10:03:42.767Z,1.45
2022-08-04T10:06:36.986Z,1.45
2022-08-04T10:09:18.356Z,1.50
2022-08-04T10:11:56.953Z,1.30
2022-08-04T10:14:41.754Z,1.30
2022-08-04T10:17:24.385Z,1.60
2022-08-04T10:20:04.504Z,1.50
2022-08-04T10:22:55.941Z,1.40
2022-08-04T10:26:05.212Z,1.20
2022-08-04T10:28:33.523Z,1.40
2022-08-04T10:31:08.171Z,1.20
2022-08-04T10:33:43.985Z,1.20
2022-08-04T10:36:17.544Z,1.38
2022-08-04T10:38:57.604Z,1.02
2022-08-04T10:41:31.602Z,1.20
2022-08-04T10:44:10.436Z,1.23
2022-08-04T10:46:44.488Z,1.00
2022-08-04T10:49:24.164Z,1.50
2022-08-04T10:51:57.777Z,1.45
2022-08-04T10:54:34.576Z,1.20
2022-08-04T10:57:08.706Z,1.75
2022-08-04T10:59:44.687Z,1.20
2022-08-04T11:02:27.226Z,1.20
2022-08-04T11:05:18.142Z,1.30
2022-08-04T11:07:51.611Z,1.30
2022-08-04T11:10:25.733Z,1.50
2022-08-04T11:12:59.052Z,1.10
2022-08-04T11:15:32.040Z,1.05
2022-08-04T11:18:06.873Z,1.10
2022-08-04T11:20:53.791Z,1.20
2022-08-04T11:23:28.066Z,1.30
2022-08-04T11:26:02.969Z,0.95
2022-08-04T11:28:44.968Z,1.10
2022-08-04T11:31:19.305Z,1.35
2022-08-04T11:33:56.581Z,1.40
2022-08-04T11:36:33.570Z,1.08
2022-08-04T11:39:08.436Z,1.10
2022-08-04T11:41:48.282Z,1.00
2022-08-04T11:44:27.647Z,1.33
2022-08-04T11:47:00.626Z,1.13
2022-08-04T11:49:57.082Z,1.50
2022-08-04T11:52:25.397Z,1.40
2022-08-04T11:54:54.683Z,1.10
2022-08-04T11:57:35.483Z,1.38
2022-08-04T12:00:10.368Z,1.13
2022-08-04T12:02:52.070Z,1.20
2022-08-04T12:05:36.036Z,1.30
2022-08-04T12:08:21.145Z,1.10
2022-08-04T12:11:10.595Z,0.90
2022-08-04T12:13:47.310Z,1.20
2022-08-04T12:16:19.451Z,1.00
2022-08-04T12:18:53.782Z,0.93
2022-08-04T12:21:29.324Z,1.10
2022-08-04T12:24:02.917Z,0.98
2022-08-04T12:26:38.602Z,1.02
2022-08-04T12:29:11.874Z,1.33
2022-08-04T12:31:46.690Z,1.05
2022-08-04T12:34:18.704Z,1.10
2022-08-04T12:36:55.754Z,1.00
2022-08-04T12:39:27.362Z,1.20
2022-08-04T12:42:02.974Z,1.17
2022-08-04T12:44:38.511Z,1.30
2022-08-04T12:47:27.131Z,1.20
2022-08-04T12:50:02.030Z,1.17
2022-08-04T12:52:59.081Z,1.20
2022-08-04T12:55:22.235Z,0.95
2022-08-04T12:57:52.349Z,1.10
2022-08-04T13:00:34.213Z,0.98
2022-08-04T13:03:10.074Z,0.95
2022-08-04T13:05:40.099Z,1.10
2022-08-04T13:08:09.795Z,0.90
2022-08-04T13:10:40.792Z,0.80
2022-08-04T13:13:16.714Z,0.98
2022-08-04T13:15:57.773Z,1.10
2022-08-04T13:18:30.367Z,1.00
2022-08-04T13:21:19.645Z,0.93
2022-08-04T13:24:09.950Z,0.80
2022-08-04T13:26:55.168Z,1.02
2022-08-04T13:29:59.004Z,1.08
2022-08-04T13:32:26.500Z,0.80
2022-08-04T13:34:57.150Z,1.08
2022-08-04T13:37:27.895Z,1.08
2022-08-04T13:39:57.283Z,1.10
2022-08-04T13:42:28.365Z,0.88
2022-08-04T13:45:00.615Z,1.10
2022-08-04T13:47:33.608Z,0.90
2022-08-04T13:50:16.461Z,1.00
2022-08-04T13:52:45.917Z,1.10
2022-08-04T13:55:23.578Z,1.10
2022-08-04T13:57:56.033Z,1.10
2022-08-04T14:00:29.746Z,1.13
2022-08-04T14:03:23.244Z,1.20
2022-08-04T14:06:10.869Z,1.20
2022-08-04T14:08:48.088Z,1.00
2022-08-04T14:12:10.044Z,1.20
2022-08-04T14:14:15.418Z,1.08
2022-08-04T14:16:57.453Z,1.15
2022-08-04T14:19:31.070Z,1.17
2022-08-04T14:22:04.901Z,1.15
2022-08-04T14:24:33.321Z,1.25
2022-08-04T14:27:01.743Z,1.23
2022-08-04T14:29:38.792Z,0.98
2022-08-04T14:32:14.106Z,1.10
2022-08-04T14:34:46.245Z,1.10
2022-08-04T14:37:19.436Z,1.30
2022-08-04T14:40:19.113Z,1.15
2022-08-04T14:42:55.711Z,1.38
2022-08-04T14:45:35.916Z,1.08
2022-08-04T14:48:08.131Z,1.77
2022-08-04T14:50:40.116Z,1.50
2022-08-04T14:53:11.086Z,1.48
2022-08-04T14:55:41.196Z,1.42
2022-08-04T14:58:36.458Z,1.85
2022-08-04T15:01:09.710Z,1.77
2022-08-04T15:03:49.569Z,3.67
2022-08-04T15:06:23.198Z,1.73
2022-08-04T15:08:52.977Z,1.58
2022-08-04T15:11:23.604Z,2.33
2022-08-04T15:13:52.350Z,1.70
2022-08-04T15:16:20.665Z,1.50
2022-08-04T15:18:49.431Z,2.30
2022-08-04T15:21:18.262Z,1.65
2022-08-04T15:23:47.676Z,2.08
2022-08-04T15:26:18.617Z,1.60
2022-08-04T15:28:51.597Z,1.48
2022-08-04T15:32:07.281Z,2.17
2022-08-04T15:34:11.488Z,2.20
2022-08-04T15:36:56.363Z,1.83
2022-08-04T15:39:37.061Z,1.92
2022-08-04T15:42:21.605Z,1.75
2022-08-04T15:45:20.787Z,1.70
2022-08-04T15:48:26.200Z,1.40
2022-08-04T15:51:28.332Z,1.45
2022-08-04T15:54:32.189Z,2.00
2022-08-04T15:57:03.769Z,1.50
2022-08-04T16:00:15.103Z,1.55
2022-08-04T16:02:44.471Z,1.10
2022-08-04T16:05:36.920Z,1.17
2022-08-04T16:08:13.421Z,1.17
2022-08-04T16:10:43.302Z,2.03
2022-08-04T16:13:15.086Z,1.88
2022-08-04T16:15:47.168Z,1.13
2022-08-04T16:18:26.123Z,1.20
2022-08-04T16:20:58.125Z,1.70
2022-08-04T16:24:02.199Z,1.15
2022-08-04T16:26:55.157Z,1.40
2022-08-04T16:29:40.261Z,3.05
2022-08-04T16:32:13.805Z,1.67
2022-08-04T16:34:49.465Z,2.15
2022-08-04T16:37:24.046Z,1.60
2022-08-04T16:40:28.610Z,1.15
2022-08-04T16:43:04.132Z,1.10
2022-08-04T16:45:51.197Z,1.10
2022-08-04T16:48:20.510Z,1.30
2022-08-04T16:51:04.660Z,1.40
2022-08-04T16:53:53.650Z,1.50
2022-08-04T16:56:32.936Z,1.70
2022-08-04T16:59:07.719Z,1.30
2022-08-04T17:01:38.226Z,1.30
2022-08-04T17:04:07.363Z,1.50
2022-08-04T17:06:37.692Z,2.85
2022-08-04T17:09:07.202Z,1.27
2022-08-04T17:11:35.288Z,1.60
2022-08-04T17:14:05.776Z,1.40
2022-08-04T17:16:38.391Z,1.70
2022-08-04T17:19:24.153Z,1.30
2022-08-04T17:22:02.184Z,1.30
2022-08-04T17:24:31.469Z,1.33
2022-08-04T17:27:00.178Z,1.42
2022-08-04T17:29:42.209Z,1.85
2022-08-04T17:32:18.799Z,1.75
2022-08-04T17:34:50.522Z,2.13
2022-08-04T17:37:38.181Z,1.88
2022-08-04T17:40:12.178Z,1.80
2022-08-04T17:42:42.036Z,1.90
2022-08-04T17:48:03.573Z,2.25
2022-08-04T17:50:36.013Z,2.28
2022-08-04T17:53:11.577Z,2.97
2022-08-04T17:55:40.971Z,2.42
2022-08-04T17:58:24.135Z,2.50
2022-08-04T18:01:23.109Z,2.40
2022-08-04T18:03:58.254Z,2.22
2022-08-04T18:06:26.358Z,2.55
2022-08-04T18:08:58.967Z,2.63
2022-08-04T18:11:53.674Z,2.92
2022-08-04T18:14:25.878Z,2.85
2022-08-04T18:16:56.699Z,3.03
2022-08-04T18:19:26.142Z,2.83
2022-08-04T18:22:01.013Z,2.90
2022-08-04T18:24:34.637Z,2.33
2022-08-04T18:27:19.310Z,3.17
2022-08-04T18:30:14.539Z,2.88
2022-08-04T18:32:36.351Z,3.33
2022-08-04T18:35:07.251Z,2.95
2022-08-04T18:38:05.865Z,2.90
2022-08-04T18:40:30.231Z,3.45
2022-08-04T18:43:03.651Z,3.33
2022-08-04T18:48:20.985Z,3.03
2022-08-04T18:51:09.487Z,3.08
2022-08-04T18:53:38.617Z,3.92
2022-08-04T18:56:19.922Z,3.67
2022-08-04T18:58:57.442Z,3.20
2022-08-04T19:01:29.613Z,2.95
2022-08-04T19:03:58.566Z,3.13
2022-08-04T19:06:28.309Z,3.10
2022-08-04T19:08:58.047Z,3.70
2022-08-04T19:11:37.904Z,3.30
2022-08-04T19:14:14.753Z,3.55
2022-08-04T19:16:46.135Z,3.50
2022-08-04T19:19:15.717Z,3.75
2022-08-04T19:22:00.918Z,3.33
2022-08-04T19:24:34.326Z,3.47
2022-08-04T19:29:52.763Z,3.28
2022-08-04T19:32:22.490Z,3.83
2022-08-04T19:34:52.139Z,3.63
2022-08-04T19:37:58.501Z,2.90
2022-08-04T19:40:12.968Z,3.67
2022-08-04T19:42:42.473Z,3.58
2022-08-04T19:45:15.906Z,3.92
2022-08-04T19:48:18.297Z,3.50
2022-08-04T19:50:32.346Z,3.60
2022-08-04T19:53:04.172Z,4.20
2022-08-04T19:55:49.708Z,4.05
2022-08-04T19:58:21.521Z,4.30
2022-08-04T20:00:53.861Z,4.45
2022-08-04T20:04:08.403Z,4.32
2022-08-04T20:06:11.792Z,4.22
2022-08-04T20:08:48.313Z,4.20
2022-08-04T20:11:17.362Z,4.63
2022-08-04T20:13:54.630Z,5.07
2022-08-04T20:16:30.003Z,4.38
2022-08-04T20:19:03.269Z,4.78
2022-08-04T20:21:55.641Z,4.70
2022-08-04T20:24:36.912Z,5.25
2022-08-04T20:27:21.697Z,5.07
2022-08-04T20:29:51.689Z,5.10
2022-08-04T20:32:26.002Z,5.32
2022-08-04T20:34:55.916Z,5.15
2022-08-04T20:37:25.975Z,5.18
2022-08-04T20:40:15.414Z,5.50
2022-08-04T20:42:44.986Z,5.43
2022-08-04T20:45:16.241Z,5.78
2022-08-04T20:47:53.307Z,5.63
2022-08-04T20:50:29.798Z,5.90
2022-08-04T20:52:58.708Z,5.60
2022-08-04T20:55:29.866Z,5.93
2022-08-04T20:58:02.566Z,6.05
2022-08-04T21:00:31.929Z,5.55
2022-08-04T21:03:00.291Z,6.07
2022-08-04T21:05:28.427Z,5.93
2022-08-04T21:07:57.626Z,5.90
2022-08-04T21:10:27.388Z,5.63
2022-08-04T21:12:55.826Z,6.00
2022-08-04T21:15:50.839Z,5.90
2022-08-04T21:18:14.659Z,6.63
2022-08-04T21:20:48.232Z,6.50
2022-08-04T21:23:16.221Z,6.18
2022-08-04T21:25:49.846Z,5.63
2022-08-04T21:31:11.089Z,5.38
2022-08-04T21:33:52.181Z,6.47
2022-08-04T21:36:20.718Z,5.60
2022-08-04T21:38:51.490Z,5.63
2022-08-04T21:41:25.237Z,6.05
2022-08-04T21:43:55.739Z,6.20
2022-08-04T21:46:24.346Z,5.50
2022-08-04T21:48:52.506Z,6.05
2022-08-04T21:51:58.011Z,5.72
2022-08-04T21:54:16.855Z,5.85
2022-08-04T21:56:50.721Z,5.97
2022-08-04T21:59:23.774Z,5.78
2022-08-04T22:01:56.535Z,6.15
2022-08-04T22:04:24.928Z,6.05
2022-08-04T22:06:53.043Z,6.03
2022-08-04T22:09:22.378Z,6.40
2022-08-04T22:11:52.465Z,5.72
2022-08-04T22:14:29.427Z,6.20
2022-08-04T22:17:02.643Z,6.47
2022-08-04T22:19:50.298Z,6.53
2022-08-04T22:22:26.274Z,6.13
2022-08-04T22:24:58.882Z,5.55
2022-08-04T22:27:47.916Z,6.05
2022-08-04T22:30:23.952Z,6.93
2022-08-04T22:32:52.033Z,6.22
2022-08-04T22:35:42.892Z,6.45
2022-08-04T22:38:25.306Z,6.55
2022-08-04T22:40:59.716Z,5.75
2022-08-04T22:43:33.676Z,6.50
2022-08-04T22:46:05.383Z,5.82
2022-08-04T22:48:35.433Z,6.40
2022-08-04T22:51:03.931Z,5.88
2022-08-04T22:53:32.489Z,7.10
2022-08-04T22:56:10.291Z,6.57
2022-08-04T22:58:45.509Z,6.85
2022-08-04T23:01:19.412Z,7.05
2022-08-04T23:03:55.467Z,6.63
2022-08-04T23:06:25.685Z,6.70
2022-08-04T23:08:59.447Z,7.07
2022-08-04T23:11:34.397Z,7.20
2022-08-04T23:14:05.493Z,7.05
2022-08-04T23:16:40.814Z,7.28
2022-08-04T23:19:15.203Z,7.20
2022-08-04T23:21:47.288Z,7.50
2022-08-04T23:24:16.001Z,7.30
2022-08-04T23:26:44.133Z,7.65
2022-08-04T23:29:13.926Z,7.80
2022-08-04T23:31:59.099Z,6.80
2022-08-04T23:34:29.108Z,7.35
2022-08-04T23:36:59.273Z,8.25
2022-08-04T23:40:03.756Z,7.80
2022-08-04T23:42:21.012Z,7.80
2022-08-04T23:44:50.958Z,8.00
2022-08-04T23:48:16.563Z,7.95
2022-08-04T23:50:08.477Z,7.60
2022-08-04T23:52:37.298Z,8.45
2022-08-04T23:55:07.598Z,7.70
2022-08-04T23:58:06.503Z,7.68
